sensor_id;sensor_type;location;lat;lon;timestamp;temperature;humidity
17845;DHT22;9047;53.486;10.218;2022-09-06T00:00:18;16.70;97.70
17845;DHT22;9047;53.486;10.218;2022-09-06T00:02:48;16.70;97.60
17845;DHT22;9047;53.486;10.218;2022-09-06T00:05:17;16.70;97.60
17845;DHT22;9047;53.486;10.218;2022-09-06T00:07:51;16.70;97.60
17845;DHT22;9047;53.486;10.218;2022-09-06T00:10:22;16.70;97.70
17845;DHT22;9047;53.486;10.218;2022-09-06T00:12:59;16.70;97.50
17845;DHT22;9047;53.486;10.218;2022-09-06T00:15:54;16.70;97.40
17845;DHT22;9047;53.486;10.218;2022-09-06T00:18:21;16.80;97.30
17845;DHT22;9047;53.486;10.218;2022-09-06T00:20:48;16.80;97.40
17845;DHT22;9047;53.486;10.218;2022-09-06T00:23:16;16.80;97.40
17845;DHT22;9047;53.486;10.218;2022-09-06T00:25:52;16.80;97.50
17845;DHT22;9047;53.486;10.218;2022-09-06T00:28:24;16.70;97.50
17845;DHT22;9047;53.486;10.218;2022-09-06T00:30:52;16.70;97.50
17845;DHT22;9047;53.486;10.218;2022-09-06T00:33:25;16.70;97.50
17845;DHT22;9047;53.486;10.218;2022-09-06T00:36:12;16.70;97.50
17845;DHT22;9047;53.486;10.218;2022-09-06T00:38:40;16.60;97.50
17845;DHT22;9047;53.486;10.218;2022-09-06T00:41:14;16.60;97.50
17845;DHT22;9047;53.486;10.218;2022-09-06T00:43:52;16.60;97.50
17845;DHT22;9047;53.486;10.218;2022-09-06T00:50:10;16.50;97.60
17845;DHT22;9047;53.486;10.218;2022-09-06T00:55:48;16.50;97.50
17845;DHT22;9047;53.486;10.218;2022-09-06T00:58:31;16.50;97.70
17845;DHT22;9047;53.486;10.218;2022-09-06T01:01:29;16.40;97.60
17845;DHT22;9047;53.486;10.218;2022-09-06T01:04:46;16.40;97.50
17845;DHT22;9047;53.486;10.218;2022-09-06T01:07:25;16.40;97.50
17845;DHT22;9047;53.486;10.218;2022-09-06T01:10:29;16.40;97.30
17845;DHT22;9047;53.486;10.218;2022-09-06T01:13:27;16.40;97.20
17845;DHT22;9047;53.486;10.218;2022-09-06T01:16:12;16.50;97.20
17845;DHT22;9047;53.486;10.218;2022-09-06T01:19:11;16.50;97.10
17845;DHT22;9047;53.486;10.218;2022-09-06T01:21:54;16.40;97.00
17845;DHT22;9047;53.486;10.218;2022-09-06T01:24:59;16.60;96.80
17845;DHT22;9047;53.486;10.218;2022-09-06T01:30:52;16.50;96.70
17845;DHT22;9047;53.486;10.218;2022-09-06T01:33:42;16.50;96.50
17845;DHT22;9047;53.486;10.218;2022-09-06T01:36:24;16.50;96.50
17845;DHT22;9047;53.486;10.218;2022-09-06T01:42:07;16.60;96.30
17845;DHT22;9047;53.486;10.218;2022-09-06T01:44:40;16.60;96.20
17845;DHT22;9047;53.486;10.218;2022-09-06T01:47:36;16.60;96.00
17845;DHT22;9047;53.486;10.218;2022-09-06T01:57:06;16.60;96.20
17845;DHT22;9047;53.486;10.218;2022-09-06T01:59:54;16.60;95.70
17845;DHT22;9047;53.486;10.218;2022-09-06T02:02:40;16.60;95.50
17845;DHT22;9047;53.486;10.218;2022-09-06T02:08:47;16.60;95.30
17845;DHT22;9047;53.486;10.218;2022-09-06T02:12:00;16.70;95.20
17845;DHT22;9047;53.486;10.218;2022-09-06T02:15:01;16.70;95.00
17845;DHT22;9047;53.486;10.218;2022-09-06T02:18:10;16.70;95.40
17845;DHT22;9047;53.486;10.218;2022-09-06T02:20:48;16.60;94.90
17845;DHT22;9047;53.486;10.218;2022-09-06T02:23:32;16.60;95.00
17845;DHT22;9047;53.486;10.218;2022-09-06T02:26:21;16.60;94.80
17845;DHT22;9047;53.486;10.218;2022-09-06T02:29:03;16.60;94.80
17845;DHT22;9047;53.486;10.218;2022-09-06T02:31:34;16.60;94.60
17845;DHT22;9047;53.486;10.218;2022-09-06T02:34:18;16.70;94.50
17845;DHT22;9047;53.486;10.218;2022-09-06T02:36:47;16.60;94.50
17845;DHT22;9047;53.486;10.218;2022-09-06T02:39:20;16.60;94.20
17845;DHT22;9047;53.486;10.218;2022-09-06T02:41:49;16.60;94.10
17845;DHT22;9047;53.486;10.218;2022-09-06T02:44:51;16.70;94.10
17845;DHT22;9047;53.486;10.218;2022-09-06T02:47:43;16.60;93.80
17845;DHT22;9047;53.486;10.218;2022-09-06T02:51:34;16.70;93.70
17845;DHT22;9047;53.486;10.218;2022-09-06T02:54:09;16.70;93.90
17845;DHT22;9047;53.486;10.218;2022-09-06T02:56:47;16.60;93.80
17845;DHT22;9047;53.486;10.218;2022-09-06T02:59:21;16.60;93.80
17845;DHT22;9047;53.486;10.218;2022-09-06T03:02:03;16.60;93.80
17845;DHT22;9047;53.486;10.218;2022-09-06T03:04:33;16.50;93.60
17845;DHT22;9047;53.486;10.218;2022-09-06T03:07:20;16.60;93.50
17845;DHT22;9047;53.486;10.218;2022-09-06T03:10:05;16.60;93.70
17845;DHT22;9047;53.486;10.218;2022-09-06T03:12:32;16.60;93.50
17845;DHT22;9047;53.486;10.218;2022-09-06T03:15:06;16.60;93.60
17845;DHT22;9047;53.486;10.218;2022-09-06T03:17:39;16.50;93.60
17845;DHT22;9047;53.486;10.218;2022-09-06T03:20:48;16.50;93.40
17845;DHT22;9047;53.486;10.218;2022-09-06T03:23:06;16.50;93.40
17845;DHT22;9047;53.486;10.218;2022-09-06T03:25:55;16.50;93.50
17845;DHT22;9047;53.486;10.218;2022-09-06T03:28:34;16.50;93.30
17845;DHT22;9047;53.486;10.218;2022-09-06T03:31:08;16.50;93.20
17845;DHT22;9047;53.486;10.218;2022-09-06T03:33:58;16.50;93.20
17845;DHT22;9047;53.486;10.218;2022-09-06T03:36:28;16.40;93.00
17845;DHT22;9047;53.486;10.218;2022-09-06T03:39:00;16.40;93.10
17845;DHT22;9047;53.486;10.218;2022-09-06T03:41:33;16.40;93.00
17845;DHT22;9047;53.486;10.218;2022-09-06T03:44:01;16.40;92.80
17845;DHT22;9047;53.486;10.218;2022-09-06T03:46:30;16.40;93.00
17845;DHT22;9047;53.486;10.218;2022-09-06T03:49:21;16.40;92.90
17845;DHT22;9047;53.486;10.218;2022-09-06T03:52:12;16.30;92.90
17845;DHT22;9047;53.486;10.218;2022-09-06T03:58:59;16.20;92.90
17845;DHT22;9047;53.486;10.218;2022-09-06T04:01:44;16.20;92.70
17845;DHT22;9047;53.486;10.218;2022-09-06T04:04:38;16.30;92.90
17845;DHT22;9047;53.486;10.218;2022-09-06T04:07:08;16.10;92.90
17845;DHT22;9047;53.486;10.218;2022-09-06T04:09:38;16.10;93.00
17845;DHT22;9047;53.486;10.218;2022-09-06T04:12:20;16.00;93.40
17845;DHT22;9047;53.486;10.218;2022-09-06T04:14:50;16.00;93.00
17845;DHT22;9047;53.486;10.218;2022-09-06T04:17:18;15.90;93.00
17845;DHT22;9047;53.486;10.218;2022-09-06T04:19:44;15.90;93.00
17845;DHT22;9047;53.486;10.218;2022-09-06T04:22:18;15.80;93.20
17845;DHT22;9047;53.486;10.218;2022-09-06T04:24:53;15.80;93.10
17845;DHT22;9047;53.486;10.218;2022-09-06T04:27:37;15.70;93.20
17845;DHT22;9047;53.486;10.218;2022-09-06T04:30:06;15.70;93.20
17845;DHT22;9047;53.486;10.218;2022-09-06T04:32:37;15.70;93.30
17845;DHT22;9047;53.486;10.218;2022-09-06T04:35:12;15.60;93.30
17845;DHT22;9047;53.486;10.218;2022-09-06T04:37:51;15.60;93.50
17845;DHT22;9047;53.486;10.218;2022-09-06T04:40:18;15.60;93.50
17845;DHT22;9047;53.486;10.218;2022-09-06T04:42:52;15.50;93.50
17845;DHT22;9047;53.486;10.218;2022-09-06T04:45:25;15.50;93.50
17845;DHT22;9047;53.486;10.218;2022-09-06T04:47:53;15.40;93.50
17845;DHT22;9047;53.486;10.218;2022-09-06T04:50:21;15.40;93.50
17845;DHT22;9047;53.486;10.218;2022-09-06T04:52:50;15.40;93.40
17845;DHT22;9047;53.486;10.218;2022-09-06T04:55:18;15.40;93.40
17845;DHT22;9047;53.486;10.218;2022-09-06T04:57:46;15.40;93.40
17845;DHT22;9047;53.486;10.218;2022-09-06T05:00:17;15.40;93.30
17845;DHT22;9047;53.486;10.218;2022-09-06T05:02:59;15.40;93.40
17845;DHT22;9047;53.486;10.218;2022-09-06T05:05:40;15.40;93.50
17845;DHT22;9047;53.486;10.218;2022-09-06T05:08:12;15.30;93.40
17845;DHT22;9047;53.486;10.218;2022-09-06T05:10:45;15.40;93.30
17845;DHT22;9047;53.486;10.218;2022-09-06T05:13:19;15.40;93.30
17845;DHT22;9047;53.486;10.218;2022-09-06T05:15:54;15.40;93.20
17845;DHT22;9047;53.486;10.218;2022-09-06T05:18:49;15.50;93.20
17845;DHT22;9047;53.486;10.218;2022-09-06T05:21:18;15.50;93.10
17845;DHT22;9047;53.486;10.218;2022-09-06T05:23:59;15.50;93.20
17845;DHT22;9047;53.486;10.218;2022-09-06T05:26:26;15.60;93.20
17845;DHT22;9047;53.486;10.218;2022-09-06T05:29:07;15.60;93.00
17845;DHT22;9047;53.486;10.218;2022-09-06T05:31:34;15.60;93.00
17845;DHT22;9047;53.486;10.218;2022-09-06T05:34:04;15.70;93.00
17845;DHT22;9047;53.486;10.218;2022-09-06T05:36:35;15.70;92.70
17845;DHT22;9047;53.486;10.218;2022-09-06T05:39:03;15.80;92.90
17845;DHT22;9047;53.486;10.218;2022-09-06T05:41:38;15.80;92.90
17845;DHT22;9047;53.486;10.218;2022-09-06T05:44:16;15.80;92.80
17845;DHT22;9047;53.486;10.218;2022-09-06T05:46:48;15.80;92.90
17845;DHT22;9047;53.486;10.218;2022-09-06T05:49:19;15.80;92.80
17845;DHT22;9047;53.486;10.218;2022-09-06T05:51:49;15.80;92.70
17845;DHT22;9047;53.486;10.218;2022-09-06T05:54:30;15.90;92.80
17845;DHT22;9047;53.486;10.218;2022-09-06T05:57:07;15.90;93.10
17845;DHT22;9047;53.486;10.218;2022-09-06T05:59:41;16.00;92.70
17845;DHT22;9047;53.486;10.218;2022-09-06T06:02:18;16.00;92.80
17845;DHT22;9047;53.486;10.218;2022-09-06T06:04:51;16.00;92.90
17845;DHT22;9047;53.486;10.218;2022-09-06T06:07:30;16.10;92.70
17845;DHT22;9047;53.486;10.218;2022-09-06T06:09:57;16.10;92.50
17845;DHT22;9047;53.486;10.218;2022-09-06T06:12:27;16.20;92.70
17845;DHT22;9047;53.486;10.218;2022-09-06T06:14:55;16.20;92.90
17845;DHT22;9047;53.486;10.218;2022-09-06T06:17:38;16.30;92.50
17845;DHT22;9047;53.486;10.218;2022-09-06T06:20:09;16.30;92.60
17845;DHT22;9047;53.486;10.218;2022-09-06T06:22:36;16.40;92.30
17845;DHT22;9047;53.486;10.218;2022-09-06T06:25:06;16.40;92.40
17845;DHT22;9047;53.486;10.218;2022-09-06T06:27:39;16.50;92.10
17845;DHT22;9047;53.486;10.218;2022-09-06T06:30:26;16.50;92.20
17845;DHT22;9047;53.486;10.218;2022-09-06T06:33:00;16.50;92.30
17845;DHT22;9047;53.486;10.218;2022-09-06T06:35:30;16.50;92.40
17845;DHT22;9047;53.486;10.218;2022-09-06T06:38:08;16.60;92.30
17845;DHT22;9047;53.486;10.218;2022-09-06T06:40:35;16.60;92.40
17845;DHT22;9047;53.486;10.218;2022-09-06T06:43:24;16.70;92.70
17845;DHT22;9047;53.486;10.218;2022-09-06T06:46:01;16.80;92.30
17845;DHT22;9047;53.486;10.218;2022-09-06T06:48:35;16.90;92.10
17845;DHT22;9047;53.486;10.218;2022-09-06T06:51:09;17.00;92.20
17845;DHT22;9047;53.486;10.218;2022-09-06T06:53:50;17.20;91.90
17845;DHT22;9047;53.486;10.218;2022-09-06T06:56:56;17.20;91.70
17845;DHT22;9047;53.486;10.218;2022-09-06T06:59:28;17.30;91.70
17845;DHT22;9047;53.486;10.218;2022-09-06T07:01:57;17.30;91.80
17845;DHT22;9047;53.486;10.218;2022-09-06T07:04:31;17.30;92.00
17845;DHT22;9047;53.486;10.218;2022-09-06T07:07:03;17.30;92.00
17845;DHT22;9047;53.486;10.218;2022-09-06T07:09:35;17.40;92.00
17845;DHT22;9047;53.486;10.218;2022-09-06T07:12:03;17.40;92.10
17845;DHT22;9047;53.486;10.218;2022-09-06T07:14:38;17.40;92.10
17845;DHT22;9047;53.486;10.218;2022-09-06T07:17:06;17.40;92.10
17845;DHT22;9047;53.486;10.218;2022-09-06T07:19:34;17.50;92.40
17845;DHT22;9047;53.486;10.218;2022-09-06T07:22:08;17.50;92.40
17845;DHT22;9047;53.486;10.218;2022-09-06T07:24:34;17.60;92.20
17845;DHT22;9047;53.486;10.218;2022-09-06T07:27:02;17.70;92.10
17845;DHT22;9047;53.486;10.218;2022-09-06T07:29:32;17.70;92.40
17845;DHT22;9047;53.486;10.218;2022-09-06T07:31:59;17.70;92.00
17845;DHT22;9047;53.486;10.218;2022-09-06T07:34:31;17.70;92.30
17845;DHT22;9047;53.486;10.218;2022-09-06T07:37:23;17.70;92.10
17845;DHT22;9047;53.486;10.218;2022-09-06T07:39:50;17.80;92.10
17845;DHT22;9047;53.486;10.218;2022-09-06T07:42:26;17.80;92.30
17845;DHT22;9047;53.486;10.218;2022-09-06T07:45:10;17.80;92.40
17845;DHT22;9047;53.486;10.218;2022-09-06T07:48:01;17.90;92.30
17845;DHT22;9047;53.486;10.218;2022-09-06T07:51:16;17.90;92.40
17845;DHT22;9047;53.486;10.218;2022-09-06T07:53:59;18.00;92.30
17845;DHT22;9047;53.486;10.218;2022-09-06T07:56:49;18.00;92.60
17845;DHT22;9047;53.486;10.218;2022-09-06T07:59:19;18.00;92.40
17845;DHT22;9047;53.486;10.218;2022-09-06T08:01:50;18.10;92.30
17845;DHT22;9047;53.486;10.218;2022-09-06T08:04:18;18.10;92.70
17845;DHT22;9047;53.486;10.218;2022-09-06T08:06:50;18.20;92.40
17845;DHT22;9047;53.486;10.218;2022-09-06T08:09:33;18.20;92.40
17845;DHT22;9047;53.486;10.218;2022-09-06T08:12:02;18.30;92.60
17845;DHT22;9047;53.486;10.218;2022-09-06T08:14:42;18.40;92.10
17845;DHT22;9047;53.486;10.218;2022-09-06T08:20:04;18.60;92.10
17845;DHT22;9047;53.486;10.218;2022-09-06T08:22:34;18.80;92.40
17845;DHT22;9047;53.486;10.218;2022-09-06T08:25:07;18.90;91.80
17845;DHT22;9047;53.486;10.218;2022-09-06T08:27:35;19.00;91.90
17845;DHT22;9047;53.486;10.218;2022-09-06T08:30:03;19.10;91.90
17845;DHT22;9047;53.486;10.218;2022-09-06T08:32:41;19.10;92.20
17845;DHT22;9047;53.486;10.218;2022-09-06T08:35:11;19.10;92.20
17845;DHT22;9047;53.486;10.218;2022-09-06T08:37:40;19.20;91.90
17845;DHT22;9047;53.486;10.218;2022-09-06T08:40:19;19.30;92.10
17845;DHT22;9047;53.486;10.218;2022-09-06T08:43:10;19.30;92.00
17845;DHT22;9047;53.486;10.218;2022-09-06T08:45:56;19.40;92.30
17845;DHT22;9047;53.486;10.218;2022-09-06T08:48:29;19.40;91.60
17845;DHT22;9047;53.486;10.218;2022-09-06T08:51:06;19.40;91.70
17845;DHT22;9047;53.486;10.218;2022-09-06T08:53:58;19.40;91.80
17845;DHT22;9047;53.486;10.218;2022-09-06T08:56:41;19.40;92.00
17845;DHT22;9047;53.486;10.218;2022-09-06T08:59:13;19.30;91.90
17845;DHT22;9047;53.486;10.218;2022-09-06T09:02:17;19.30;92.20
17845;DHT22;9047;53.486;10.218;2022-09-06T09:04:49;19.20;92.10
17845;DHT22;9047;53.486;10.218;2022-09-06T09:07:37;19.10;92.30
17845;DHT22;9047;53.486;10.218;2022-09-06T09:10:10;19.10;92.40
17845;DHT22;9047;53.486;10.218;2022-09-06T09:12:44;19.00;92.60
17845;DHT22;9047;53.486;10.218;2022-09-06T09:15:16;19.00;92.60
17845;DHT22;9047;53.486;10.218;2022-09-06T09:17:49;19.00;92.60
17845;DHT22;9047;53.486;10.218;2022-09-06T09:20:17;19.00;92.60
17845;DHT22;9047;53.486;10.218;2022-09-06T09:22:45;19.00;92.70
17845;DHT22;9047;53.486;10.218;2022-09-06T09:25:19;19.00;92.80
17845;DHT22;9047;53.486;10.218;2022-09-06T09:27:48;19.00;93.10
17845;DHT22;9047;53.486;10.218;2022-09-06T09:30:25;19.00;92.90
17845;DHT22;9047;53.486;10.218;2022-09-06T09:32:52;19.00;92.90
17845;DHT22;9047;53.486;10.218;2022-09-06T09:35:25;18.90;92.80
17845;DHT22;9047;53.486;10.218;2022-09-06T09:38:05;18.90;93.20
17845;DHT22;9047;53.486;10.218;2022-09-06T09:40:38;18.90;93.00
17845;DHT22;9047;53.486;10.218;2022-09-06T09:43:25;18.90;93.00
17845;DHT22;9047;53.486;10.218;2022-09-06T09:46:27;19.00;93.00
17845;DHT22;9047;53.486;10.218;2022-09-06T09:49:06;18.90;93.10
17845;DHT22;9047;53.486;10.218;2022-09-06T09:51:35;18.90;93.00
17845;DHT22;9047;53.486;10.218;2022-09-06T09:54:05;18.90;93.10
17845;DHT22;9047;53.486;10.218;2022-09-06T09:56:44;18.80;92.90
17845;DHT22;9047;53.486;10.218;2022-09-06T09:59:24;18.80;93.10
17845;DHT22;9047;53.486;10.218;2022-09-06T10:02:26;18.80;93.00
17845;DHT22;9047;53.486;10.218;2022-09-06T10:05:01;18.90;93.10
17845;DHT22;9047;53.486;10.218;2022-09-06T10:07:33;18.80;93.30
17845;DHT22;9047;53.486;10.218;2022-09-06T10:13:11;19.00;93.40
17845;DHT22;9047;53.486;10.218;2022-09-06T10:15:40;19.00;93.60
17845;DHT22;9047;53.486;10.218;2022-09-06T10:18:30;19.00;93.30
17845;DHT22;9047;53.486;10.218;2022-09-06T10:21:11;19.00;93.00
17845;DHT22;9047;53.486;10.218;2022-09-06T10:24:10;19.10;93.00
17845;DHT22;9047;53.486;10.218;2022-09-06T10:30:19;19.10;93.00
17845;DHT22;9047;53.486;10.218;2022-09-06T10:36:02;19.20;93.20
17845;DHT22;9047;53.486;10.218;2022-09-06T10:38:42;19.30;92.80
17845;DHT22;9047;53.486;10.218;2022-09-06T10:41:31;19.40;93.10
17845;DHT22;9047;53.486;10.218;2022-09-06T10:44:17;19.50;92.80
17845;DHT22;9047;53.486;10.218;2022-09-06T10:46:58;19.50;92.50
17845;DHT22;9047;53.486;10.218;2022-09-06T10:49:27;19.60;92.50
17845;DHT22;9047;53.486;10.218;2022-09-06T10:52:03;19.70;93.00
17845;DHT22;9047;53.486;10.218;2022-09-06T10:54:54;19.80;92.90
17845;DHT22;9047;53.486;10.218;2022-09-06T11:00:17;20.00;92.20
17845;DHT22;9047;53.486;10.218;2022-09-06T11:02:53;20.10;92.80
17845;DHT22;9047;53.486;10.218;2022-09-06T11:05:49;20.20;92.50
17845;DHT22;9047;53.486;10.218;2022-09-06T11:08:37;20.20;92.10
17845;DHT22;9047;53.486;10.218;2022-09-06T11:11:17;20.30;92.30
17845;DHT22;9047;53.486;10.218;2022-09-06T11:14:00;20.40;92.50
17845;DHT22;9047;53.486;10.218;2022-09-06T11:20:07;20.40;91.80
17845;DHT22;9047;53.486;10.218;2022-09-06T11:23:43;20.40;92.50
17845;DHT22;9047;53.486;10.218;2022-09-06T11:26:35;20.40;92.20
17845;DHT22;9047;53.486;10.218;2022-09-06T11:29:21;20.40;91.70
17845;DHT22;9047;53.486;10.218;2022-09-06T11:31:55;20.40;92.00
17845;DHT22;9047;53.486;10.218;2022-09-06T11:34:38;20.50;91.90
17845;DHT22;9047;53.486;10.218;2022-09-06T11:37:10;20.50;92.10
17845;DHT22;9047;53.486;10.218;2022-09-06T11:40:21;20.50;91.60
17845;DHT22;9047;53.486;10.218;2022-09-06T11:47:05;20.60;92.20
17845;DHT22;9047;53.486;10.218;2022-09-06T11:50:53;20.60;91.90
17845;DHT22;9047;53.486;10.218;2022-09-06T11:53:58;20.70;92.40
17845;DHT22;9047;53.486;10.218;2022-09-06T11:56:50;20.80;92.60
17845;DHT22;9047;53.486;10.218;2022-09-06T11:59:30;21.00;92.60
17845;DHT22;9047;53.486;10.218;2022-09-06T12:02:05;21.10;91.70
17845;DHT22;9047;53.486;10.218;2022-09-06T12:05:17;21.10;91.50
17845;DHT22;9047;53.486;10.218;2022-09-06T12:17:53;21.30;91.90
17845;DHT22;9047;53.486;10.218;2022-09-06T12:31:36;21.00;92.60
17845;DHT22;9047;53.486;10.218;2022-09-06T12:54:50;21.60;91.70
17845;DHT22;9047;53.486;10.218;2022-09-06T13:01:10;21.60;92.00
17845;DHT22;9047;53.486;10.218;2022-09-06T13:04:31;21.50;92.30
17845;DHT22;9047;53.486;10.218;2022-09-06T13:14:30;21.20;92.40
17845;DHT22;9047;53.486;10.218;2022-09-06T13:17:54;21.20;92.40
17845;DHT22;9047;53.486;10.218;2022-09-06T13:24:20;20.90;93.00
17845;DHT22;9047;53.486;10.218;2022-09-06T13:26:56;20.80;93.00
17845;DHT22;9047;53.486;10.218;2022-09-06T13:29:57;20.70;93.50
17845;DHT22;9047;53.486;10.218;2022-09-06T13:32:33;20.70;93.50
17845;DHT22;9047;53.486;10.218;2022-09-06T13:35:10;20.60;93.40
17845;DHT22;9047;53.486;10.218;2022-09-06T13:38:49;20.60;93.30
17845;DHT22;9047;53.486;10.218;2022-09-06T13:41:41;20.50;93.40
17845;DHT22;9047;53.486;10.218;2022-09-06T13:44:37;20.50;93.70
17845;DHT22;9047;53.486;10.218;2022-09-06T13:47:26;20.50;93.70
17845;DHT22;9047;53.486;10.218;2022-09-06T13:50:36;20.50;94.10
17845;DHT22;9047;53.486;10.218;2022-09-06T13:53:36;20.40;94.00
17845;DHT22;9047;53.486;10.218;2022-09-06T13:56:38;20.40;93.90
17845;DHT22;9047;53.486;10.218;2022-09-06T14:02:51;20.40;94.00
17845;DHT22;9047;53.486;10.218;2022-09-06T14:05:40;20.30;94.50
17845;DHT22;9047;53.486;10.218;2022-09-06T14:08:39;20.30;95.00
17845;DHT22;9047;53.486;10.218;2022-09-06T14:11:59;20.20;95.70
17845;DHT22;9047;53.486;10.218;2022-09-06T14:33:04;19.80;96.50
17845;DHT22;9047;53.486;10.218;2022-09-06T14:42:42;19.80;96.70
17845;DHT22;9047;53.486;10.218;2022-09-06T14:46:06;19.90;96.60
17845;DHT22;9047;53.486;10.218;2022-09-06T14:53:05;19.90;96.70
17845;DHT22;9047;53.486;10.218;2022-09-06T14:56:03;20.00;96.60
17845;DHT22;9047;53.486;10.218;2022-09-06T14:58:58;20.00;96.70
17845;DHT22;9047;53.486;10.218;2022-09-06T15:01:45;20.00;97.10
17845;DHT22;9047;53.486;10.218;2022-09-06T15:04:41;20.00;96.70
17845;DHT22;9047;53.486;10.218;2022-09-06T15:07:22;20.00;96.70
17845;DHT22;9047;53.486;10.218;2022-09-06T15:10:27;20.00;96.70
17845;DHT22;9047;53.486;10.218;2022-09-06T15:15:55;20.20;96.60
17845;DHT22;9047;53.486;10.218;2022-09-06T15:18:52;20.30;96.70
17845;DHT22;9047;53.486;10.218;2022-09-06T15:38:38;20.70;96.60
17845;DHT22;9047;53.486;10.218;2022-09-06T15:41:15;20.80;96.30
17845;DHT22;9047;53.486;10.218;2022-09-06T15:43:52;20.80;95.80
17845;DHT22;9047;53.486;10.218;2022-09-06T15:53:11;21.00;95.20
17845;DHT22;9047;53.486;10.218;2022-09-06T15:59:11;21.10;95.00
17845;DHT22;9047;53.486;10.218;2022-09-06T16:01:59;21.10;94.80
17845;DHT22;9047;53.486;10.218;2022-09-06T16:04:28;21.20;94.60
17845;DHT22;9047;53.486;10.218;2022-09-06T16:06:56;21.20;94.20
17845;DHT22;9047;53.486;10.218;2022-09-06T16:09:35;21.30;94.30
17845;DHT22;9047;53.486;10.218;2022-09-06T16:12:15;21.40;94.30
17845;DHT22;9047;53.486;10.218;2022-09-06T16:15:01;21.60;94.10
17845;DHT22;9047;53.486;10.218;2022-09-06T16:17:43;21.70;94.30
17845;DHT22;9047;53.486;10.218;2022-09-06T16:20:56;21.90;94.50
17845;DHT22;9047;53.486;10.218;2022-09-06T16:23:46;22.20;94.10
17845;DHT22;9047;53.486;10.218;2022-09-06T16:26:26;22.30;94.00
17845;DHT22;9047;53.486;10.218;2022-09-06T16:29:04;22.30;93.90
17845;DHT22;9047;53.486;10.218;2022-09-06T16:31:34;22.40;93.70
17845;DHT22;9047;53.486;10.218;2022-09-06T16:34:01;22.50;93.50
17845;DHT22;9047;53.486;10.218;2022-09-06T16:36:29;22.50;93.40
17845;DHT22;9047;53.486;10.218;2022-09-06T16:39:10;22.40;93.40
17845;DHT22;9047;53.486;10.218;2022-09-06T16:41:39;22.30;93.50
17845;DHT22;9047;53.486;10.218;2022-09-06T16:44:22;22.20;93.50
17845;DHT22;9047;53.486;10.218;2022-09-06T16:52:55;22.00;93.60
17845;DHT22;9047;53.486;10.218;2022-09-06T16:55:23;21.90;93.80
17845;DHT22;9047;53.486;10.218;2022-09-06T16:57:52;21.90;93.50
17845;DHT22;9047;53.486;10.218;2022-09-06T17:00:38;21.80;93.50
17845;DHT22;9047;53.486;10.218;2022-09-06T17:03:22;21.70;93.40
17845;DHT22;9047;53.486;10.218;2022-09-06T17:05:57;21.60;93.50
17845;DHT22;9047;53.486;10.218;2022-09-06T17:08:50;21.60;93.30
17845;DHT22;9047;53.486;10.218;2022-09-06T17:11:38;21.50;93.70
17845;DHT22;9047;53.486;10.218;2022-09-06T17:17:24;21.20;94.00
17845;DHT22;9047;53.486;10.218;2022-09-06T17:20:23;21.00;93.90
17845;DHT22;9047;53.486;10.218;2022-09-06T17:23:14;20.90;94.30
17845;DHT22;9047;53.486;10.218;2022-09-06T17:25:42;20.70;94.50
17845;DHT22;9047;53.486;10.218;2022-09-06T17:28:17;20.60;94.60
17845;DHT22;9047;53.486;10.218;2022-09-06T17:30:58;20.40;95.00
17845;DHT22;9047;53.486;10.218;2022-09-06T17:33:29;20.30;95.10
17845;DHT22;9047;53.486;10.218;2022-09-06T17:36:07;20.20;95.30
17845;DHT22;9047;53.486;10.218;2022-09-06T17:39:01;20.10;95.50
17845;DHT22;9047;53.486;10.218;2022-09-06T17:41:44;20.00;95.80
17845;DHT22;9047;53.486;10.218;2022-09-06T17:44:27;19.80;96.10
17845;DHT22;9047;53.486;10.218;2022-09-06T17:47:04;19.70;96.60
17845;DHT22;9047;53.486;10.218;2022-09-06T17:49:37;19.70;97.10
17845;DHT22;9047;53.486;10.218;2022-09-06T17:52:06;19.60;97.30
17845;DHT22;9047;53.486;10.218;2022-09-06T17:54:36;19.50;97.60
17845;DHT22;9047;53.486;10.218;2022-09-06T17:57:05;19.30;97.90
17845;DHT22;9047;53.486;10.218;2022-09-06T17:59:32;19.20;98.10
17845;DHT22;9047;53.486;10.218;2022-09-06T18:02:03;19.10;98.50
17845;DHT22;9047;53.486;10.218;2022-09-06T18:04:30;19.00;98.60
17845;DHT22;9047;53.486;10.218;2022-09-06T18:07:01;19.00;98.90
17845;DHT22;9047;53.486;10.218;2022-09-06T18:09:30;18.90;99.10
17845;DHT22;9047;53.486;10.218;2022-09-06T18:11:58;18.80;99.40
17845;DHT22;9047;53.486;10.218;2022-09-06T18:14:25;18.70;99.60
17845;DHT22;9047;53.486;10.218;2022-09-06T18:16:54;18.60;99.70
17845;DHT22;9047;53.486;10.218;2022-09-06T18:19:21;18.50;99.90
17845;DHT22;9047;53.486;10.218;2022-09-06T18:21:48;18.40;99.90
17845;DHT22;9047;53.486;10.218;2022-09-06T18:24:16;18.40;99.90
17845;DHT22;9047;53.486;10.218;2022-09-06T18:26:44;18.30;99.90
17845;DHT22;9047;53.486;10.218;2022-09-06T18:29:12;18.20;99.90
17845;DHT22;9047;53.486;10.218;2022-09-06T18:31:41;18.10;99.90
17845;DHT22;9047;53.486;10.218;2022-09-06T18:34:09;18.00;99.90
17845;DHT22;9047;53.486;10.218;2022-09-06T18:36:37;17.90;99.90
17845;DHT22;9047;53.486;10.218;2022-09-06T18:39:05;17.90;99.90
17845;DHT22;9047;53.486;10.218;2022-09-06T18:41:32;17.80;99.90
17845;DHT22;9047;53.486;10.218;2022-09-06T18:44:18;17.70;99.90
17845;DHT22;9047;53.486;10.218;2022-09-06T18:46:46;17.70;99.90
17845;DHT22;9047;53.486;10.218;2022-09-06T18:49:13;17.70;99.90
17845;DHT22;9047;53.486;10.218;2022-09-06T18:51:40;17.70;99.90
17845;DHT22;9047;53.486;10.218;2022-09-06T18:54:07;17.60;99.90
17845;DHT22;9047;53.486;10.218;2022-09-06T18:56:35;17.60;99.90
17845;DHT22;9047;53.486;10.218;2022-09-06T18:59:02;17.60;99.90
17845;DHT22;9047;53.486;10.218;2022-09-06T19:01:34;17.50;99.90
17845;DHT22;9047;53.486;10.218;2022-09-06T19:04:01;17.50;99.90
17845;DHT22;9047;53.486;10.218;2022-09-06T19:06:35;17.40;99.90
17845;DHT22;9047;53.486;10.218;2022-09-06T19:09:04;17.40;99.90
17845;DHT22;9047;53.486;10.218;2022-09-06T19:11:37;17.40;99.90
17845;DHT22;9047;53.486;10.218;2022-09-06T19:14:06;17.30;99.90
17845;DHT22;9047;53.486;10.218;2022-09-06T19:16:35;17.30;99.90
17845;DHT22;9047;53.486;10.218;2022-09-06T19:19:03;17.20;99.90
17845;DHT22;9047;53.486;10.218;2022-09-06T19:21:31;17.20;99.90
17845;DHT22;9047;53.486;10.218;2022-09-06T19:24:03;17.10;99.90
17845;DHT22;9047;53.486;10.218;2022-09-06T19:26:32;17.10;99.90
17845;DHT22;9047;53.486;10.218;2022-09-06T19:29:02;17.00;99.90
17845;DHT22;9047;53.486;10.218;2022-09-06T19:31:31;17.00;99.90
17845;DHT22;9047;53.486;10.218;2022-09-06T19:34:04;16.90;99.90
17845;DHT22;9047;53.486;10.218;2022-09-06T19:36:34;16.90;99.90
17845;DHT22;9047;53.486;10.218;2022-09-06T19:39:03;16.90;99.90
17845;DHT22;9047;53.486;10.218;2022-09-06T19:41:35;16.80;99.90
17845;DHT22;9047;53.486;10.218;2022-09-06T19:44:16;16.80;99.90